Dripping Springs' Hourly Summary for Saturday, March 18, 2017
Hour Temp
(f)
RH
(%)
Solar Rad.
(MJ/m2)
Rainfall
(in)
Wind
(mph)
3/18/2017 12:00 AM 66 99 0 0 7.28
3/18/2017 1:00 AM 64 100 0 0 5.37
3/18/2017 2:00 AM 63 100 0 0 4.38
3/18/2017 3:00 AM 62 100 0 0 3.57
3/18/2017 4:00 AM 62 100 0 0 3.68
3/18/2017 5:00 AM 62 100 0 0 2.39
3/18/2017 6:00 AM 62 100 0 0 3.52
3/18/2017 7:00 AM 62 100 0 0 4.07
3/18/2017 8:00 AM 62 100 0.01 0 4.1
3/18/2017 9:00 AM 62 100 0.19 0 3.06
3/18/2017 10:00 AM 64 100 0.44 0 3.3
3/18/2017 11:00 AM 66 100 0.87 0 4.93
3/18/2017 12:00 PM 68 99 1.34 0 5.83
3/18/2017 1:00 PM 69 99 1.1 0 5.78
3/18/2017 2:00 PM 72 75 2.29 0 6.39
3/18/2017 3:00 PM 76 61 2.63 0 6.01
3/18/2017 4:00 PM 77 56 2.13 0 5.45
3/18/2017 5:00 PM 78 51 1.75 0 6.35
3/18/2017 6:00 PM 79 51 0.81 0 5.77
3/18/2017 7:00 PM 77 54 0.43 0 4.96
3/18/2017 8:00 PM 75 61 0.08 0 2.21
3/18/2017 9:00 PM 71 73 0 0 0.01
3/18/2017 10:00 PM 68 96 0 0 0.13
3/18/2017 11:00 PM 67 98 0 0 1.97
Data Summary 68 86 14.07 0.00 4.19